sensor_id;sensor_type;location;lat;lon;timestamp;temperature;humidity
40504;DHT22;42292;49.048;8.374;2022-11-11T00:01:50;5.40;99.90
40504;DHT22;42292;49.048;8.374;2022-11-11T00:04:16;5.40;99.90
40504;DHT22;42292;49.048;8.374;2022-11-11T00:06:45;5.40;99.90
40504;DHT22;42292;49.048;8.374;2022-11-11T00:09:16;5.40;99.90
40504;DHT22;42292;49.048;8.374;2022-11-11T00:11:44;5.30;99.90
40504;DHT22;42292;49.048;8.374;2022-11-11T00:14:09;5.30;99.90
40504;DHT22;42292;49.048;8.374;2022-11-11T00:16:37;5.40;99.90
40504;DHT22;42292;49.048;8.374;2022-11-11T00:19:24;5.50;99.90
40504;DHT22;42292;49.048;8.374;2022-11-11T00:22:19;5.40;99.90
40504;DHT22;42292;49.048;8.374;2022-11-11T00:25:04;5.30;99.90
40504;DHT22;42292;49.048;8.374;2022-11-11T00:27:33;5.20;99.90
40504;DHT22;42292;49.048;8.374;2022-11-11T00:29:58;5.20;99.90
40504;DHT22;42292;49.048;8.374;2022-11-11T00:32:24;5.30;99.90
40504;DHT22;42292;49.048;8.374;2022-11-11T00:34:56;5.50;99.90
40504;DHT22;42292;49.048;8.374;2022-11-11T00:37:42;5.40;99.90
40504;DHT22;42292;49.048;8.374;2022-11-11T00:40:11;5.30;99.90
40504;DHT22;42292;49.048;8.374;2022-11-11T00:42:40;5.30;99.90
40504;DHT22;42292;49.048;8.374;2022-11-11T00:45:06;5.20;99.90
40504;DHT22;42292;49.048;8.374;2022-11-11T00:47:32;5.10;99.90
40504;DHT22;42292;49.048;8.374;2022-11-11T00:50:19;5.10;99.90
40504;DHT22;42292;49.048;8.374;2022-11-11T00:53:07;5.10;99.90
40504;DHT22;42292;49.048;8.374;2022-11-11T00:55:33;5.10;99.90
40504;DHT22;42292;49.048;8.374;2022-11-11T00:57:59;5.10;99.90
40504;DHT22;42292;49.048;8.374;2022-11-11T01:00:24;5.10;99.90
40504;DHT22;42292;49.048;8.374;2022-11-11T01:02:50;5.10;99.90
40504;DHT22;42292;49.048;8.374;2022-11-11T01:05:15;5.00;99.90
40504;DHT22;42292;49.048;8.374;2022-11-11T01:07:41;5.00;99.90
40504;DHT22;42292;49.048;8.374;2022-11-11T01:10:09;5.00;99.90
40504;DHT22;42292;49.048;8.374;2022-11-11T01:12:37;5.00;99.90
40504;DHT22;42292;49.048;8.374;2022-11-11T01:15:02;5.00;99.90
40504;DHT22;42292;49.048;8.374;2022-11-11T01:17:28;5.00;99.90
40504;DHT22;42292;49.048;8.374;2022-11-11T01:19:54;4.90;99.90
40504;DHT22;42292;49.048;8.374;2022-11-11T01:22:19;4.90;99.90
40504;DHT22;42292;49.048;8.374;2022-11-11T01:24:50;4.90;99.90
40504;DHT22;42292;49.048;8.374;2022-11-11T01:27:18;4.90;99.90
40504;DHT22;42292;49.048;8.374;2022-11-11T01:29:46;4.90;99.90
40504;DHT22;42292;49.048;8.374;2022-11-11T01:32:14;4.90;99.90
40504;DHT22;42292;49.048;8.374;2022-11-11T01:34:39;4.90;99.90
40504;DHT22;42292;49.048;8.374;2022-11-11T01:37:10;4.90;99.90
40504;DHT22;42292;49.048;8.374;2022-11-11T01:39:37;4.80;99.90
40504;DHT22;42292;49.048;8.374;2022-11-11T01:42:03;4.70;99.90
40504;DHT22;42292;49.048;8.374;2022-11-11T01:44:45;4.70;99.90
40504;DHT22;42292;49.048;8.374;2022-11-11T01:47:11;4.70;99.90
40504;DHT22;42292;49.048;8.374;2022-11-11T01:54:45;4.90;99.90
40504;DHT22;42292;49.048;8.374;2022-11-11T01:59:45;5.00;99.90
40504;DHT22;42292;49.048;8.374;2022-11-11T02:02:22;5.00;99.90
40504;DHT22;42292;49.048;8.374;2022-11-11T02:04:52;4.90;99.90
40504;DHT22;42292;49.048;8.374;2022-11-11T02:07:41;5.00;99.90
40504;DHT22;42292;49.048;8.374;2022-11-11T02:10:08;5.00;99.90
40504;DHT22;42292;49.048;8.374;2022-11-11T02:12:34;5.10;99.90
40504;DHT22;42292;49.048;8.374;2022-11-11T02:15:18;5.10;99.90
40504;DHT22;42292;49.048;8.374;2022-11-11T02:17:46;5.20;99.90
40504;DHT22;42292;49.048;8.374;2022-11-11T02:20:25;5.30;99.90
40504;DHT22;42292;49.048;8.374;2022-11-11T02:23:03;5.30;99.90
40504;DHT22;42292;49.048;8.374;2022-11-11T02:25:31;5.40;99.90
40504;DHT22;42292;49.048;8.374;2022-11-11T02:28:00;5.40;99.90
40504;DHT22;42292;49.048;8.374;2022-11-11T02:30:27;5.50;99.90
40504;DHT22;42292;49.048;8.374;2022-11-11T02:32:53;5.50;99.90
40504;DHT22;42292;49.048;8.374;2022-11-11T02:35:33;5.60;99.90
40504;DHT22;42292;49.048;8.374;2022-11-11T02:38:03;5.60;99.90
40504;DHT22;42292;49.048;8.374;2022-11-11T02:40:43;5.50;99.90
40504;DHT22;42292;49.048;8.374;2022-11-11T02:43:28;5.40;99.90
40504;DHT22;42292;49.048;8.374;2022-11-11T02:45:57;5.40;99.90
40504;DHT22;42292;49.048;8.374;2022-11-11T02:48:23;5.40;99.90
40504;DHT22;42292;49.048;8.374;2022-11-11T02:50:52;5.50;99.90
40504;DHT22;42292;49.048;8.374;2022-11-11T02:53:20;5.50;99.90
40504;DHT22;42292;49.048;8.374;2022-11-11T02:55:53;5.60;99.90
40504;DHT22;42292;49.048;8.374;2022-11-11T02:58:18;5.60;99.90
40504;DHT22;42292;49.048;8.374;2022-11-11T03:00:44;5.70;99.90
40504;DHT22;42292;49.048;8.374;2022-11-11T03:03:14;5.70;99.90
40504;DHT22;42292;49.048;8.374;2022-11-11T03:05:40;5.60;99.90
40504;DHT22;42292;49.048;8.374;2022-11-11T03:08:08;5.70;99.90
40504;DHT22;42292;49.048;8.374;2022-11-11T03:10:34;5.70;99.90
40504;DHT22;42292;49.048;8.374;2022-11-11T03:12:59;5.80;99.90
40504;DHT22;42292;49.048;8.374;2022-11-11T03:15:25;5.80;99.90
40504;DHT22;42292;49.048;8.374;2022-11-11T03:17:50;5.80;99.90
40504;DHT22;42292;49.048;8.374;2022-11-11T03:20:19;5.70;99.90
40504;DHT22;42292;49.048;8.374;2022-11-11T03:23:12;5.60;99.90
40504;DHT22;42292;49.048;8.374;2022-11-11T03:25:45;5.50;99.90
40504;DHT22;42292;49.048;8.374;2022-11-11T03:28:15;5.40;99.90
40504;DHT22;42292;49.048;8.374;2022-11-11T03:30:46;5.30;99.90
40504;DHT22;42292;49.048;8.374;2022-11-11T03:33:15;5.40;99.90
40504;DHT22;42292;49.048;8.374;2022-11-11T03:35:41;5.40;99.90
40504;DHT22;42292;49.048;8.374;2022-11-11T03:38:10;5.50;99.90
40504;DHT22;42292;49.048;8.374;2022-11-11T03:40:50;5.50;99.90
40504;DHT22;42292;49.048;8.374;2022-11-11T03:43:17;5.50;99.90
40504;DHT22;42292;49.048;8.374;2022-11-11T03:45:46;5.60;99.90
40504;DHT22;42292;49.048;8.374;2022-11-11T03:48:15;5.60;99.90
40504;DHT22;42292;49.048;8.374;2022-11-11T03:50:40;5.60;99.90
40504;DHT22;42292;49.048;8.374;2022-11-11T03:53:06;5.60;99.90
40504;DHT22;42292;49.048;8.374;2022-11-11T03:55:32;5.80;99.90
40504;DHT22;42292;49.048;8.374;2022-11-11T03:57:58;5.80;99.90
40504;DHT22;42292;49.048;8.374;2022-11-11T04:00:26;5.70;99.90
40504;DHT22;42292;49.048;8.374;2022-11-11T04:03:05;5.60;99.90
40504;DHT22;42292;49.048;8.374;2022-11-11T04:05:52;5.50;99.90
40504;DHT22;42292;49.048;8.374;2022-11-11T04:08:38;5.60;99.90
40504;DHT22;42292;49.048;8.374;2022-11-11T04:11:41;5.50;99.90
40504;DHT22;42292;49.048;8.374;2022-11-11T04:14:10;5.60;99.90
40504;DHT22;42292;49.048;8.374;2022-11-11T04:16:55;5.60;99.90
40504;DHT22;42292;49.048;8.374;2022-11-11T04:19:23;5.70;99.90
40504;DHT22;42292;49.048;8.374;2022-11-11T04:22:08;5.70;99.90
40504;DHT22;42292;49.048;8.374;2022-11-11T04:24:34;5.70;99.90
40504;DHT22;42292;49.048;8.374;2022-11-11T04:27:19;5.80;99.90
40504;DHT22;42292;49.048;8.374;2022-11-11T04:29:45;5.80;99.90
40504;DHT22;42292;49.048;8.374;2022-11-11T04:32:20;5.90;99.90
40504;DHT22;42292;49.048;8.374;2022-11-11T04:35:11;6.00;99.90
40504;DHT22;42292;49.048;8.374;2022-11-11T04:37:45;6.10;99.90
40504;DHT22;42292;49.048;8.374;2022-11-11T04:40:11;6.10;99.90
40504;DHT22;42292;49.048;8.374;2022-11-11T04:42:56;6.00;99.90
40504;DHT22;42292;49.048;8.374;2022-11-11T04:45:21;6.10;99.90
40504;DHT22;42292;49.048;8.374;2022-11-11T04:50:24;6.00;99.90
40504;DHT22;42292;49.048;8.374;2022-11-11T04:52:53;6.10;99.90
40504;DHT22;42292;49.048;8.374;2022-11-11T04:55:19;6.20;99.90
40504;DHT22;42292;49.048;8.374;2022-11-11T04:58:03;6.30;99.90
40504;DHT22;42292;49.048;8.374;2022-11-11T05:00:31;6.40;99.90
40504;DHT22;42292;49.048;8.374;2022-11-11T05:02:56;6.50;99.90
40504;DHT22;42292;49.048;8.374;2022-11-11T05:05:45;6.50;99.90
40504;DHT22;42292;49.048;8.374;2022-11-11T05:08:30;6.60;99.90
40504;DHT22;42292;49.048;8.374;2022-11-11T05:11:18;6.70;99.90
40504;DHT22;42292;49.048;8.374;2022-11-11T05:13:46;6.60;99.90
40504;DHT22;42292;49.048;8.374;2022-11-11T05:16:55;6.60;99.90
40504;DHT22;42292;49.048;8.374;2022-11-11T05:19:39;6.60;99.90
40504;DHT22;42292;49.048;8.374;2022-11-11T05:22:31;6.60;99.90
40504;DHT22;42292;49.048;8.374;2022-11-11T05:25:00;6.60;99.90
40504;DHT22;42292;49.048;8.374;2022-11-11T05:27:44;6.70;99.90
40504;DHT22;42292;49.048;8.374;2022-11-11T05:30:13;6.60;99.90
40504;DHT22;42292;49.048;8.374;2022-11-11T05:32:42;6.50;99.90
40504;DHT22;42292;49.048;8.374;2022-11-11T05:35:11;6.30;99.90
40504;DHT22;42292;49.048;8.374;2022-11-11T05:37:38;6.40;99.90
40504;DHT22;42292;49.048;8.374;2022-11-11T05:40:04;6.50;99.90
40504;DHT22;42292;49.048;8.374;2022-11-11T05:42:30;6.40;99.90
40504;DHT22;42292;49.048;8.374;2022-11-11T05:44:58;6.30;99.90
40504;DHT22;42292;49.048;8.374;2022-11-11T05:47:26;6.30;99.90
40504;DHT22;42292;49.048;8.374;2022-11-11T05:49:51;6.30;99.90
40504;DHT22;42292;49.048;8.374;2022-11-11T05:52:19;6.30;99.90
40504;DHT22;42292;49.048;8.374;2022-11-11T05:54:45;6.40;99.90
40504;DHT22;42292;49.048;8.374;2022-11-11T05:57:13;6.40;99.90
40504;DHT22;42292;49.048;8.374;2022-11-11T05:59:41;6.40;99.90
40504;DHT22;42292;49.048;8.374;2022-11-11T06:02:08;6.50;99.90
40504;DHT22;42292;49.048;8.374;2022-11-11T06:04:38;6.40;99.90
40504;DHT22;42292;49.048;8.374;2022-11-11T06:07:03;6.50;99.90
40504;DHT22;42292;49.048;8.374;2022-11-11T06:09:31;6.40;99.90
40504;DHT22;42292;49.048;8.374;2022-11-11T06:11:56;6.50;99.90
40504;DHT22;42292;49.048;8.374;2022-11-11T06:14:22;6.40;99.90
40504;DHT22;42292;49.048;8.374;2022-11-11T06:16:48;6.40;99.90
40504;DHT22;42292;49.048;8.374;2022-11-11T06:19:13;6.40;99.90
40504;DHT22;42292;49.048;8.374;2022-11-11T06:21:41;6.30;99.90
40504;DHT22;42292;49.048;8.374;2022-11-11T06:24:22;6.40;99.90
40504;DHT22;42292;49.048;8.374;2022-11-11T06:26:48;6.40;99.90
40504;DHT22;42292;49.048;8.374;2022-11-11T06:29:18;6.50;99.90
40504;DHT22;42292;49.048;8.374;2022-11-11T06:31:46;6.40;99.90
40504;DHT22;42292;49.048;8.374;2022-11-11T06:34:14;6.40;99.90
40504;DHT22;42292;49.048;8.374;2022-11-11T06:36:42;6.40;99.90
40504;DHT22;42292;49.048;8.374;2022-11-11T06:39:08;6.30;99.90
40504;DHT22;42292;49.048;8.374;2022-11-11T06:41:36;6.30;99.90
40504;DHT22;42292;49.048;8.374;2022-11-11T06:44:06;6.30;99.90
40504;DHT22;42292;49.048;8.374;2022-11-11T06:46:34;6.40;99.90
40504;DHT22;42292;49.048;8.374;2022-11-11T06:48:59;6.40;99.90
40504;DHT22;42292;49.048;8.374;2022-11-11T06:51:27;6.40;99.90
40504;DHT22;42292;49.048;8.374;2022-11-11T06:53:53;6.50;99.90
40504;DHT22;42292;49.048;8.374;2022-11-11T06:56:21;6.60;99.90
40504;DHT22;42292;49.048;8.374;2022-11-11T06:58:48;6.60;99.90
40504;DHT22;42292;49.048;8.374;2022-11-11T07:01:14;6.60;99.90
40504;DHT22;42292;49.048;8.374;2022-11-11T07:03:40;6.50;99.90
40504;DHT22;42292;49.048;8.374;2022-11-11T07:06:08;6.40;99.90
40504;DHT22;42292;49.048;8.374;2022-11-11T07:08:34;6.30;99.90
40504;DHT22;42292;49.048;8.374;2022-11-11T07:10:59;6.20;99.90
40504;DHT22;42292;49.048;8.374;2022-11-11T07:13:28;6.30;99.90
40504;DHT22;42292;49.048;8.374;2022-11-11T07:15:56;6.50;99.90
40504;DHT22;42292;49.048;8.374;2022-11-11T07:18:22;6.50;99.90
40504;DHT22;42292;49.048;8.374;2022-11-11T07:20:47;6.50;99.90
40504;DHT22;42292;49.048;8.374;2022-11-11T07:23:13;6.40;99.90
40504;DHT22;42292;49.048;8.374;2022-11-11T07:25:39;6.50;99.90
40504;DHT22;42292;49.048;8.374;2022-11-11T07:28:09;6.60;99.90
40504;DHT22;42292;49.048;8.374;2022-11-11T07:30:37;6.60;99.90
40504;DHT22;42292;49.048;8.374;2022-11-11T07:33:05;6.60;99.90
40504;DHT22;42292;49.048;8.374;2022-11-11T07:35:31;6.60;99.90
40504;DHT22;42292;49.048;8.374;2022-11-11T07:37:59;6.50;99.90
40504;DHT22;42292;49.048;8.374;2022-11-11T07:40:24;6.70;99.90
40504;DHT22;42292;49.048;8.374;2022-11-11T07:42:50;6.90;99.90
40504;DHT22;42292;49.048;8.374;2022-11-11T07:45:16;7.10;99.90
40504;DHT22;42292;49.048;8.374;2022-11-11T07:47:42;7.20;99.90
40504;DHT22;42292;49.048;8.374;2022-11-11T07:50:11;7.50;99.90
40504;DHT22;42292;49.048;8.374;2022-11-11T07:52:47;7.60;99.90
40504;DHT22;42292;49.048;8.374;2022-11-11T07:55:15;7.70;99.90
40504;DHT22;42292;49.048;8.374;2022-11-11T07:57:43;7.70;99.90
40504;DHT22;42292;49.048;8.374;2022-11-11T08:00:11;7.40;99.90
40504;DHT22;42292;49.048;8.374;2022-11-11T08:02:37;7.10;99.90
40504;DHT22;42292;49.048;8.374;2022-11-11T08:05:05;7.20;99.90
40504;DHT22;42292;49.048;8.374;2022-11-11T08:07:33;7.60;99.90
40504;DHT22;42292;49.048;8.374;2022-11-11T08:10:02;7.80;99.90
40504;DHT22;42292;49.048;8.374;2022-11-11T08:12:30;7.40;99.90
40504;DHT22;42292;49.048;8.374;2022-11-11T08:15:14;7.20;99.90
40504;DHT22;42292;49.048;8.374;2022-11-11T08:17:42;7.20;99.90
40504;DHT22;42292;49.048;8.374;2022-11-11T08:20:11;7.30;99.90
40504;DHT22;42292;49.048;8.374;2022-11-11T08:22:41;6.80;99.90
40504;DHT22;42292;49.048;8.374;2022-11-11T08:25:08;7.40;99.90
40504;DHT22;42292;49.048;8.374;2022-11-11T08:27:35;7.40;99.90
40504;DHT22;42292;49.048;8.374;2022-11-11T08:30:01;7.50;99.90
40504;DHT22;42292;49.048;8.374;2022-11-11T08:32:27;7.70;99.90
40504;DHT22;42292;49.048;8.374;2022-11-11T08:34:55;7.90;99.90
40504;DHT22;42292;49.048;8.374;2022-11-11T08:37:20;8.00;99.90
40504;DHT22;42292;49.048;8.374;2022-11-11T08:39:46;7.70;99.90
40504;DHT22;42292;49.048;8.374;2022-11-11T08:42:12;7.80;99.90
40504;DHT22;42292;49.048;8.374;2022-11-11T08:44:37;8.20;99.90
40504;DHT22;42292;49.048;8.374;2022-11-11T08:47:05;8.30;99.90
40504;DHT22;42292;49.048;8.374;2022-11-11T08:49:31;8.50;99.90
40504;DHT22;42292;49.048;8.374;2022-11-11T08:51:59;8.70;99.90
40504;DHT22;42292;49.048;8.374;2022-11-11T08:54:25;8.60;99.90
40504;DHT22;42292;49.048;8.374;2022-11-11T08:56:51;7.90;99.90
40504;DHT22;42292;49.048;8.374;2022-11-11T08:59:19;8.10;99.90
40504;DHT22;42292;49.048;8.374;2022-11-11T09:01:44;8.40;99.90
40504;DHT22;42292;49.048;8.374;2022-11-11T09:04:10;8.50;99.90
40504;DHT22;42292;49.048;8.374;2022-11-11T09:06:38;8.80;99.90
40504;DHT22;42292;49.048;8.374;2022-11-11T09:09:05;8.70;99.90
40504;DHT22;42292;49.048;8.374;2022-11-11T09:11:31;9.60;99.90
40504;DHT22;42292;49.048;8.374;2022-11-11T09:14:01;10.20;99.90
40504;DHT22;42292;49.048;8.374;2022-11-11T09:16:29;10.70;99.90
40504;DHT22;42292;49.048;8.374;2022-11-11T09:18:54;10.80;99.90
40504;DHT22;42292;49.048;8.374;2022-11-11T09:21:22;11.00;99.90
40504;DHT22;42292;49.048;8.374;2022-11-11T09:23:48;10.70;99.90
40504;DHT22;42292;49.048;8.374;2022-11-11T09:26:14;10.50;99.90
40504;DHT22;42292;49.048;8.374;2022-11-11T09:28:39;10.20;99.90
40504;DHT22;42292;49.048;8.374;2022-11-11T09:31:05;10.30;99.90
40504;DHT22;42292;49.048;8.374;2022-11-11T09:33:30;10.30;99.90
40504;DHT22;42292;49.048;8.374;2022-11-11T09:35:57;10.50;99.90
40504;DHT22;42292;49.048;8.374;2022-11-11T09:38:25;10.20;99.90
40504;DHT22;42292;49.048;8.374;2022-11-11T09:46:23;11.20;99.90
40504;DHT22;42292;49.048;8.374;2022-11-11T09:51:53;12.00;99.90
40504;DHT22;42292;49.048;8.374;2022-11-11T09:54:31;12.60;99.90
40504;DHT22;42292;49.048;8.374;2022-11-11T09:57:07;11.70;99.90
40504;DHT22;42292;49.048;8.374;2022-11-11T09:59:44;11.80;99.90
40504;DHT22;42292;49.048;8.374;2022-11-11T10:02:38;11.50;99.90
40504;DHT22;42292;49.048;8.374;2022-11-11T10:05:13;11.30;99.90
40504;DHT22;42292;49.048;8.374;2022-11-11T10:10:26;11.20;99.90
40504;DHT22;42292;49.048;8.374;2022-11-11T10:12:59;11.50;99.90
40504;DHT22;42292;49.048;8.374;2022-11-11T10:15:37;11.90;99.90
40504;DHT22;42292;49.048;8.374;2022-11-11T10:21:10;13.30;99.90
40504;DHT22;42292;49.048;8.374;2022-11-11T10:23:37;15.40;99.90
40504;DHT22;42292;49.048;8.374;2022-11-11T10:26:15;14.50;99.90
40504;DHT22;42292;49.048;8.374;2022-11-11T10:28:45;13.70;99.90
40504;DHT22;42292;49.048;8.374;2022-11-11T10:31:19;13.10;99.90
40504;DHT22;42292;49.048;8.374;2022-11-11T10:33:48;12.20;99.90
40504;DHT22;42292;49.048;8.374;2022-11-11T10:36:17;12.20;99.90
40504;DHT22;42292;49.048;8.374;2022-11-11T10:38:59;12.70;99.90
40504;DHT22;42292;49.048;8.374;2022-11-11T10:41:41;13.00;99.90
40504;DHT22;42292;49.048;8.374;2022-11-11T10:44:25;13.20;99.90
40504;DHT22;42292;49.048;8.374;2022-11-11T10:49:25;13.60;99.90
40504;DHT22;42292;49.048;8.374;2022-11-11T10:51:59;14.10;99.90
40504;DHT22;42292;49.048;8.374;2022-11-11T10:54:44;13.90;99.90
40504;DHT22;42292;49.048;8.374;2022-11-11T10:57:22;13.90;99.90
40504;DHT22;42292;49.048;8.374;2022-11-11T11:00:08;13.90;99.90
40504;DHT22;42292;49.048;8.374;2022-11-11T11:05:39;15.10;99.90
40504;DHT22;42292;49.048;8.374;2022-11-11T11:08:22;15.10;99.90
40504;DHT22;42292;49.048;8.374;2022-11-11T11:10:56;14.90;99.90
40504;DHT22;42292;49.048;8.374;2022-11-11T11:13:42;14.60;99.90
40504;DHT22;42292;49.048;8.374;2022-11-11T11:16:15;14.10;99.90
40504;DHT22;42292;49.048;8.374;2022-11-11T11:18:42;12.90;99.90
40504;DHT22;42292;49.048;8.374;2022-11-11T11:21:09;12.90;99.90
40504;DHT22;42292;49.048;8.374;2022-11-11T11:23:42;12.20;99.90
40504;DHT22;42292;49.048;8.374;2022-11-11T11:26:10;11.90;99.90
40504;DHT22;42292;49.048;8.374;2022-11-11T11:28:58;11.00;99.90
40504;DHT22;42292;49.048;8.374;2022-11-11T11:31:44;11.30;99.90
40504;DHT22;42292;49.048;8.374;2022-11-11T11:34:11;11.50;99.90
40504;DHT22;42292;49.048;8.374;2022-11-11T11:36:40;10.80;99.90
40504;DHT22;42292;49.048;8.374;2022-11-11T11:39:08;11.20;99.90
40504;DHT22;42292;49.048;8.374;2022-11-11T11:41:39;11.70;99.90
40504;DHT22;42292;49.048;8.374;2022-11-11T11:44:24;11.70;99.90
40504;DHT22;42292;49.048;8.374;2022-11-11T11:46:52;12.20;99.90
40504;DHT22;42292;49.048;8.374;2022-11-11T11:52:37;16.00;99.90
40504;DHT22;42292;49.048;8.374;2022-11-11T11:55:18;19.80;99.90
40504;DHT22;42292;49.048;8.374;2022-11-11T12:00:24;19.10;99.90
40504;DHT22;42292;49.048;8.374;2022-11-11T12:03:15;18.50;99.90
40504;DHT22;42292;49.048;8.374;2022-11-11T12:05:49;17.40;99.90
40504;DHT22;42292;49.048;8.374;2022-11-11T12:11:17;18.50;99.90
40504;DHT22;42292;49.048;8.374;2022-11-11T12:14:07;18.90;99.90
40504;DHT22;42292;49.048;8.374;2022-11-11T12:19:41;20.50;99.90
40504;DHT22;42292;49.048;8.374;2022-11-11T12:24:54;23.00;96.60
40504;DHT22;42292;49.048;8.374;2022-11-11T12:27:41;25.00;94.80
40504;DHT22;42292;49.048;8.374;2022-11-11T12:30:12;26.50;86.10
40504;DHT22;42292;49.048;8.374;2022-11-11T12:43:54;21.80;91.90
40504;DHT22;42292;49.048;8.374;2022-11-11T12:46:38;22.70;90.80
40504;DHT22;42292;49.048;8.374;2022-11-11T13:00:18;18.80;95.00
40504;DHT22;42292;49.048;8.374;2022-11-11T13:14:40;15.70;99.90
40504;DHT22;42292;49.048;8.374;2022-11-11T13:17:11;15.10;99.90
40504;DHT22;42292;49.048;8.374;2022-11-11T13:19:50;14.40;99.90
40504;DHT22;42292;49.048;8.374;2022-11-11T13:22:28;13.90;99.90
40504;DHT22;42292;49.048;8.374;2022-11-11T13:24:54;13.60;99.90
40504;DHT22;42292;49.048;8.374;2022-11-11T13:30:12;12.90;99.90
40504;DHT22;42292;49.048;8.374;2022-11-11T13:32:54;12.60;99.90
40504;DHT22;42292;49.048;8.374;2022-11-11T13:35:44;12.30;99.90
40504;DHT22;42292;49.048;8.374;2022-11-11T13:39:05;11.90;99.90
40504;DHT22;42292;49.048;8.374;2022-11-11T13:41:07;11.90;99.90
40504;DHT22;42292;49.048;8.374;2022-11-11T13:43:46;11.90;99.90
40504;DHT22;42292;49.048;8.374;2022-11-11T13:46:38;11.70;99.90
40504;DHT22;42292;49.048;8.374;2022-11-11T13:49:22;11.30;99.90
40504;DHT22;42292;49.048;8.374;2022-11-11T13:51:59;11.20;99.90
40504;DHT22;42292;49.048;8.374;2022-11-11T13:54:30;10.90;99.90
40504;DHT22;42292;49.048;8.374;2022-11-11T13:59:56;10.80;99.90
40504;DHT22;42292;49.048;8.374;2022-11-11T14:12:51;9.90;99.90
40504;DHT22;42292;49.048;8.374;2022-11-11T14:20:51;10.40;99.90
40504;DHT22;42292;49.048;8.374;2022-11-11T14:25:51;9.80;99.90
40504;DHT22;42292;49.048;8.374;2022-11-11T14:36:43;10.30;99.90
40504;DHT22;42292;49.048;8.374;2022-11-11T14:39:34;10.30;99.90
40504;DHT22;42292;49.048;8.374;2022-11-11T14:42:06;10.20;99.90
40504;DHT22;42292;49.048;8.374;2022-11-11T14:44:47;10.20;99.90
40504;DHT22;42292;49.048;8.374;2022-11-11T14:47:17;10.00;99.90
40504;DHT22;42292;49.048;8.374;2022-11-11T14:49:49;9.70;99.90
40504;DHT22;42292;49.048;8.374;2022-11-11T14:57:45;10.20;99.90
40504;DHT22;42292;49.048;8.374;2022-11-11T15:00:18;9.90;99.90
40504;DHT22;42292;49.048;8.374;2022-11-11T15:05:53;9.60;99.90
40504;DHT22;42292;49.048;8.374;2022-11-11T15:11:29;9.60;99.90
40504;DHT22;42292;49.048;8.374;2022-11-11T15:30:53;9.60;99.90
40504;DHT22;42292;49.048;8.374;2022-11-11T15:38:43;9.60;99.90
40504;DHT22;42292;49.048;8.374;2022-11-11T15:41:21;9.50;99.90
40504;DHT22;42292;49.048;8.374;2022-11-11T15:43:49;9.50;99.90
40504;DHT22;42292;49.048;8.374;2022-11-11T15:46:26;9.60;99.90
40504;DHT22;42292;49.048;8.374;2022-11-11T15:48:55;9.70;99.90
40504;DHT22;42292;49.048;8.374;2022-11-11T15:53:46;9.90;99.90
40504;DHT22;42292;49.048;8.374;2022-11-11T15:56:33;10.00;99.90
40504;DHT22;42292;49.048;8.374;2022-11-11T15:59:29;9.80;99.90
40504;DHT22;42292;49.048;8.374;2022-11-11T16:01:57;9.40;99.90
40504;DHT22;42292;49.048;8.374;2022-11-11T16:04:23;9.00;99.90
40504;DHT22;42292;49.048;8.374;2022-11-11T16:06:49;8.70;99.90
40504;DHT22;42292;49.048;8.374;2022-11-11T16:09:21;8.90;99.90
40504;DHT22;42292;49.048;8.374;2022-11-11T16:11:48;8.70;99.90
40504;DHT22;42292;49.048;8.374;2022-11-11T16:14:27;8.70;99.90
40504;DHT22;42292;49.048;8.374;2022-11-11T16:17:03;8.70;99.90
40504;DHT22;42292;49.048;8.374;2022-11-11T16:19:36;8.70;99.90
40504;DHT22;42292;49.048;8.374;2022-11-11T16:22:13;8.70;99.90
40504;DHT22;42292;49.048;8.374;2022-11-11T16:24:41;8.60;99.90
40504;DHT22;42292;49.048;8.374;2022-11-11T16:27:19;8.60;99.90
40504;DHT22;42292;49.048;8.374;2022-11-11T16:29:46;8.70;99.90
40504;DHT22;42292;49.048;8.374;2022-11-11T16:34:51;9.00;99.90
40504;DHT22;42292;49.048;8.374;2022-11-11T16:37:20;8.90;99.90
40504;DHT22;42292;49.048;8.374;2022-11-11T16:39:46;8.80;99.90
40504;DHT22;42292;49.048;8.374;2022-11-11T16:42:19;8.90;99.90
40504;DHT22;42292;49.048;8.374;2022-11-11T16:52:58;9.10;99.90
40504;DHT22;42292;49.048;8.374;2022-11-11T16:55:44;8.90;99.90
40504;DHT22;42292;49.048;8.374;2022-11-11T16:58:16;8.60;99.90
40504;DHT22;42292;49.048;8.374;2022-11-11T17:00:46;8.70;99.90
40504;DHT22;42292;49.048;8.374;2022-11-11T17:03:20;8.80;99.90
40504;DHT22;42292;49.048;8.374;2022-11-11T17:08:42;9.20;99.90
40504;DHT22;42292;49.048;8.374;2022-11-11T17:13:54;9.10;99.90
40504;DHT22;42292;49.048;8.374;2022-11-11T17:16:20;9.00;99.90
40504;DHT22;42292;49.048;8.374;2022-11-11T17:18:45;8.90;99.90
40504;DHT22;42292;49.048;8.374;2022-11-11T17:21:16;8.70;99.90
40504;DHT22;42292;49.048;8.374;2022-11-11T17:23:44;8.60;99.90
40504;DHT22;42292;49.048;8.374;2022-11-11T17:26:09;8.60;99.90
40504;DHT22;42292;49.048;8.374;2022-11-11T17:28:36;8.40;99.90
40504;DHT22;42292;49.048;8.374;2022-11-11T17:31:06;8.50;99.90
40504;DHT22;42292;49.048;8.374;2022-11-11T17:33:32;8.50;99.90
40504;DHT22;42292;49.048;8.374;2022-11-11T17:36:02;8.60;99.90
40504;DHT22;42292;49.048;8.374;2022-11-11T17:38:28;8.70;99.90
40504;DHT22;42292;49.048;8.374;2022-11-11T17:40:53;8.70;99.90
40504;DHT22;42292;49.048;8.374;2022-11-11T17:43:19;8.40;99.90
40504;DHT22;42292;49.048;8.374;2022-11-11T17:45:45;8.30;99.90
40504;DHT22;42292;49.048;8.374;2022-11-11T17:48:13;8.40;99.90
40504;DHT22;42292;49.048;8.374;2022-11-11T17:50:41;8.50;99.90
40504;DHT22;42292;49.048;8.374;2022-11-11T17:53:07;8.60;99.90
40504;DHT22;42292;49.048;8.374;2022-11-11T17:55:35;8.50;99.90
40504;DHT22;42292;49.048;8.374;2022-11-11T17:58:04;8.30;99.90
40504;DHT22;42292;49.048;8.374;2022-11-11T18:00:35;8.20;99.90
40504;DHT22;42292;49.048;8.374;2022-11-11T18:03:01;8.30;99.90
40504;DHT22;42292;49.048;8.374;2022-11-11T18:05:26;8.20;99.90
40504;DHT22;42292;49.048;8.374;2022-11-11T18:07:56;8.20;99.90
40504;DHT22;42292;49.048;8.374;2022-11-11T18:10:24;8.40;99.90
40504;DHT22;42292;49.048;8.374;2022-11-11T18:12:50;8.40;99.90
40504;DHT22;42292;49.048;8.374;2022-11-11T18:15:15;8.30;99.90
40504;DHT22;42292;49.048;8.374;2022-11-11T18:17:41;8.20;99.90
40504;DHT22;42292;49.048;8.374;2022-11-11T18:20:07;8.20;99.90
40504;DHT22;42292;49.048;8.374;2022-11-11T18:22:35;8.20;99.90
40504;DHT22;42292;49.048;8.374;2022-11-11T18:25:01;8.30;99.90
40504;DHT22;42292;49.048;8.374;2022-11-11T18:27:29;8.30;99.90
40504;DHT22;42292;49.048;8.374;2022-11-11T18:29:57;8.30;99.90
40504;DHT22;42292;49.048;8.374;2022-11-11T18:32:22;8.20;99.90
40504;DHT22;42292;49.048;8.374;2022-11-11T18:34:50;8.10;99.90
40504;DHT22;42292;49.048;8.374;2022-11-11T18:37:16;8.10;99.90
40504;DHT22;42292;49.048;8.374;2022-11-11T18:39:44;8.00;99.90
40504;DHT22;42292;49.048;8.374;2022-11-11T18:42:11;8.10;99.90
40504;DHT22;42292;49.048;8.374;2022-11-11T18:44:39;8.30;99.90
40504;DHT22;42292;49.048;8.374;2022-11-11T18:47:09;8.40;99.90
40504;DHT22;42292;49.048;8.374;2022-11-11T18:49:39;8.20;99.90
40504;DHT22;42292;49.048;8.374;2022-11-11T18:52:05;8.10;99.90